createdAt,value
2023-05-10T00:01:03.628Z,15.80
2023-05-10T00:03:31.125Z,15.75
2023-05-10T00:05:58.700Z,15.84
2023-05-10T00:08:26.144Z,15.72
2023-05-10T00:10:54.236Z,15.66
2023-05-10T00:13:21.585Z,15.69
2023-05-10T00:15:48.957Z,15.68
2023-05-10T00:18:16.288Z,15.67
2023-05-10T00:20:43.738Z,15.57
2023-05-10T00:23:11.240Z,15.54
2023-05-10T00:25:38.846Z,15.49
2023-05-10T00:28:06.230Z,15.52
2023-05-10T00:30:33.861Z,15.48
2023-05-10T00:33:02.660Z,15.51
2023-05-10T00:35:29.998Z,15.40
2023-05-10T00:37:57.446Z,15.43
2023-05-10T00:40:24.839Z,15.37
2023-05-10T00:42:57.013Z,15.34
2023-05-10T00:45:24.479Z,15.30
2023-05-10T00:47:56.159Z,15.11
2023-05-10T00:50:27.574Z,15.07
2023-05-10T00:52:55.145Z,15.04
2023-05-10T00:55:22.697Z,14.96
2023-05-10T00:57:50.429Z,14.91
2023-05-10T01:00:19.344Z,14.98
2023-05-10T01:02:47.508Z,14.86
2023-05-10T01:05:15.202Z,14.76
2023-05-10T01:07:42.600Z,14.74
2023-05-10T01:10:11.581Z,14.73
2023-05-10T01:12:40.888Z,14.71
2023-05-10T01:15:09.233Z,14.67
2023-05-10T01:17:38.806Z,14.58
2023-05-10T01:20:09.082Z,14.58
2023-05-10T01:22:37.665Z,14.64
2023-05-10T01:25:08.226Z,14.61
2023-05-10T01:27:38.653Z,14.61
2023-05-10T01:30:15.400Z,14.52
2023-05-10T01:32:43.618Z,14.56
2023-05-10T01:35:13.934Z,14.37
2023-05-10T01:37:52.188Z,14.30
2023-05-10T01:40:26.128Z,14.27
2023-05-10T01:42:55.657Z,14.30
2023-05-10T01:45:30.100Z,14.25
2023-05-10T01:48:23.480Z,14.24
2023-05-10T01:50:51.468Z,14.10
2023-05-10T01:53:21.151Z,14.12
2023-05-10T01:55:53.790Z,14.01
2023-05-10T01:58:26.511Z,13.84
2023-05-10T02:00:55.218Z,13.87
2023-05-10T02:03:24.605Z,13.86
2023-05-10T02:05:53.130Z,13.82
2023-05-10T02:08:23.834Z,13.77
2023-05-10T02:10:52.927Z,13.75
2023-05-10T02:13:20.829Z,13.74
2023-05-10T02:15:50.125Z,13.72
2023-05-10T02:18:18.274Z,13.75
2023-05-10T02:20:47.022Z,13.62
2023-05-10T02:23:17.510Z,13.54
2023-05-10T02:25:46.709Z,13.36
2023-05-10T02:28:15.626Z,13.40
2023-05-10T02:30:44.039Z,13.39
2023-05-10T02:33:12.608Z,13.31
2023-05-10T02:35:40.699Z,13.21
2023-05-10T02:38:10.410Z,13.06
2023-05-10T02:40:39.495Z,13.06
2023-05-10T02:43:07.897Z,13.06
2023-05-10T02:45:36.789Z,12.91
2023-05-10T02:48:04.471Z,12.81
2023-05-10T02:50:33.629Z,12.77
2023-05-10T02:53:02.941Z,12.74
2023-05-10T02:55:34.160Z,12.70
2023-05-10T02:58:02.448Z,12.69
2023-05-10T03:00:30.104Z,12.54
2023-05-10T03:02:57.589Z,12.39
2023-05-10T03:05:26.196Z,12.35
2023-05-10T03:07:53.958Z,12.32
2023-05-10T03:10:24.347Z,12.23
2023-05-10T03:13:06.609Z,12.19
2023-05-10T03:15:33.952Z,12.10
2023-05-10T03:18:30.602Z,12.13
2023-05-10T03:21:00.468Z,12.13
2023-05-10T03:23:36.169Z,12.00
2023-05-10T03:26:03.851Z,11.92
2023-05-10T03:28:32.842Z,11.92
2023-05-10T03:31:01.052Z,11.85
2023-05-10T03:33:28.471Z,11.86
2023-05-10T03:35:55.878Z,11.76
2023-05-10T03:38:23.279Z,11.71
2023-05-10T03:40:50.613Z,11.70
2023-05-10T03:43:17.898Z,11.72
2023-05-10T03:45:45.344Z,11.66
2023-05-10T03:48:14.926Z,11.71
2023-05-10T03:50:43.969Z,11.65
2023-05-10T03:53:12.076Z,11.62
2023-05-10T03:55:39.410Z,11.61
2023-05-10T03:58:06.795Z,11.62
2023-05-10T04:00:35.040Z,11.60
2023-05-10T04:03:02.870Z,11.60
2023-05-10T04:05:33.303Z,11.61
2023-05-10T04:08:00.722Z,11.60
2023-05-10T04:10:28.002Z,11.59
2023-05-10T04:12:55.545Z,11.58
2023-05-10T04:15:23.201Z,11.61
2023-05-10T04:17:51.070Z,11.52
2023-05-10T04:20:18.664Z,11.46
2023-05-10T04:22:46.260Z,11.44
2023-05-10T04:25:13.444Z,11.51
2023-05-10T04:27:40.827Z,11.42
2023-05-10T04:30:08.313Z,11.45
2023-05-10T04:32:35.695Z,11.41
2023-05-10T04:35:04.702Z,11.35
2023-05-10T04:37:32.054Z,11.34
2023-05-10T04:40:00.979Z,11.32
2023-05-10T04:42:31.897Z,11.27
2023-05-10T04:44:59.229Z,11.20
2023-05-10T04:47:26.700Z,11.20
2023-05-10T04:49:54.089Z,11.18
2023-05-10T04:52:21.303Z,11.17
2023-05-10T04:54:48.658Z,11.24
2023-05-10T04:57:16.408Z,11.13
2023-05-10T04:59:43.890Z,11.15
2023-05-10T05:02:11.404Z,11.14
2023-05-10T05:04:38.742Z,11.13
2023-05-10T05:07:06.328Z,11.14
2023-05-10T05:09:33.654Z,11.15
2023-05-10T05:12:04.266Z,11.19
2023-05-10T05:14:31.881Z,11.23
2023-05-10T05:16:59.510Z,11.25
2023-05-10T05:19:26.761Z,11.18
2023-05-10T05:21:54.124Z,11.19
2023-05-10T05:24:21.646Z,11.24
2023-05-10T05:26:52.378Z,11.23
2023-05-10T05:29:19.879Z,11.27
2023-05-10T05:31:47.224Z,11.21
2023-05-10T05:34:14.530Z,11.26
2023-05-10T05:36:41.891Z,11.19
2023-05-10T05:39:09.306Z,11.14
2023-05-10T05:41:36.598Z,11.10
2023-05-10T05:44:03.913Z,11.15
2023-05-10T05:46:31.454Z,11.11
2023-05-10T05:48:58.760Z,11.07
2023-05-10T05:51:26.322Z,11.12
2023-05-10T05:53:54.136Z,11.14
2023-05-10T05:56:25.585Z,11.20
2023-05-10T05:58:53.219Z,11.08
2023-05-10T06:01:20.628Z,11.11
2023-05-10T06:03:49.016Z,11.18
2023-05-10T06:06:17.222Z,11.13
2023-05-10T06:08:44.633Z,11.15
2023-05-10T06:11:11.939Z,11.21
2023-05-10T06:13:39.454Z,11.17
2023-05-10T06:16:06.954Z,11.10
2023-05-10T06:18:34.720Z,11.19
2023-05-10T06:21:01.954Z,11.19
2023-05-10T06:23:29.857Z,11.09
2023-05-10T06:25:57.156Z,11.06
2023-05-10T06:28:24.608Z,11.08
2023-05-10T06:30:51.897Z,11.02
2023-05-10T06:33:19.129Z,10.98
2023-05-10T06:35:46.525Z,11.01
2023-05-10T06:38:13.777Z,11.00
2023-05-10T06:40:44.259Z,10.97
2023-05-10T06:43:11.627Z,10.94
2023-05-10T06:45:39.014Z,10.86
2023-05-10T06:48:06.479Z,10.83
2023-05-10T06:50:34.413Z,10.87
2023-05-10T06:53:02.802Z,10.90
2023-05-10T06:55:30.357Z,10.89
2023-05-10T06:57:57.690Z,10.91
2023-05-10T07:00:25.264Z,10.93
2023-05-10T07:02:53.054Z,10.83
2023-05-10T07:05:21.231Z,10.74
2023-05-10T07:07:48.840Z,10.66
2023-05-10T07:10:16.173Z,10.60
2023-05-10T07:12:43.736Z,10.54
2023-05-10T07:15:11.303Z,10.68
2023-05-10T07:17:38.765Z,10.78
2023-05-10T07:20:06.841Z,10.75
2023-05-10T07:22:34.302Z,10.61
2023-05-10T07:25:01.553Z,10.65
2023-05-10T07:27:28.897Z,10.61
2023-05-10T07:29:57.602Z,10.67
2023-05-10T07:32:25.073Z,10.59
2023-05-10T07:34:52.562Z,10.57
2023-05-10T07:37:20.033Z,10.56
2023-05-10T07:39:47.473Z,10.58
2023-05-10T07:42:15.189Z,10.53
2023-05-10T07:44:42.860Z,10.56
2023-05-10T07:47:10.877Z,10.56
2023-05-10T07:49:38.243Z,10.58
2023-05-10T07:52:05.635Z,10.54
2023-05-10T07:54:32.939Z,10.59
2023-05-10T07:57:00.816Z,10.61
2023-05-10T07:59:28.121Z,10.66
2023-05-10T08:01:55.694Z,10.69
2023-05-10T08:04:23.413Z,10.62
2023-05-10T08:06:50.900Z,10.61
2023-05-10T08:09:18.882Z,10.67
2023-05-10T08:11:46.331Z,10.73
2023-05-10T08:14:13.704Z,10.80
2023-05-10T08:16:41.211Z,10.76
2023-05-10T08:19:08.549Z,10.77
2023-05-10T08:21:37.086Z,10.79
2023-05-10T08:24:04.650Z,10.76
2023-05-10T08:26:31.956Z,10.73
2023-05-10T08:28:59.310Z,10.69
2023-05-10T08:31:26.701Z,10.73
2023-05-10T08:33:54.022Z,10.71
2023-05-10T08:36:22.973Z,10.71
2023-05-10T08:38:53.941Z,10.72
2023-05-10T08:41:22.252Z,10.74
2023-05-10T08:43:49.767Z,10.81
2023-05-10T08:46:19.115Z,10.89
2023-05-10T08:48:47.661Z,10.81
2023-05-10T08:51:16.241Z,10.81
2023-05-10T08:53:43.859Z,10.84
2023-05-10T08:56:11.553Z,10.94
2023-05-10T08:58:39.167Z,10.98
2023-05-10T09:01:06.557Z,10.97
2023-05-10T09:03:34.033Z,11.10
2023-05-10T09:06:01.396Z,11.09
2023-05-10T09:08:29.004Z,11.08
2023-05-10T09:10:59.147Z,11.07
2023-05-10T09:13:27.259Z,11.06
2023-05-10T09:15:54.819Z,11.04
2023-05-10T09:18:22.419Z,11.07
2023-05-10T09:20:49.796Z,11.09
2023-05-10T09:23:17.365Z,11.13
2023-05-10T09:25:44.754Z,11.17
2023-05-10T09:28:12.323Z,11.15
2023-05-10T09:30:40.328Z,11.12
2023-05-10T09:33:08.195Z,11.21
2023-05-10T09:35:35.675Z,11.26
2023-05-10T09:38:04.983Z,11.29
2023-05-10T09:40:32.735Z,11.37
2023-05-10T09:43:02.951Z,11.36
2023-05-10T09:45:31.440Z,11.38
2023-05-10T09:47:59.850Z,11.33
2023-05-10T09:50:27.746Z,11.40
2023-05-10T09:52:55.511Z,11.38
2023-05-10T09:55:24.666Z,11.50
2023-05-10T09:58:00.070Z,11.58
2023-05-10T10:00:28.399Z,11.59
2023-05-10T10:02:56.646Z,11.60
2023-05-10T10:05:34.219Z,11.50
2023-05-10T10:08:03.673Z,11.53
2023-05-10T10:10:32.053Z,11.48
2023-05-10T10:12:59.702Z,11.51
2023-05-10T10:15:27.208Z,11.55
2023-05-10T10:17:54.919Z,11.63
2023-05-10T10:20:23.675Z,11.69
2023-05-10T10:22:51.072Z,11.63
2023-05-10T10:25:20.167Z,11.72
2023-05-10T10:27:53.824Z,11.81
2023-05-10T10:30:30.398Z,11.83
2023-05-10T10:35:30.333Z,11.90
2023-05-10T10:37:58.507Z,11.76
2023-05-10T10:40:27.136Z,11.82
2023-05-10T10:42:55.314Z,11.83
2023-05-10T10:45:23.459Z,11.86
2023-05-10T10:47:54.936Z,11.85
2023-05-10T10:50:22.322Z,11.90
2023-05-10T10:52:53.124Z,11.90
2023-05-10T10:55:23.628Z,11.97
2023-05-10T10:57:53.012Z,11.94
2023-05-10T11:00:23.454Z,11.94
2023-05-10T11:02:52.836Z,11.96
2023-05-10T11:05:34.758Z,12.01
2023-05-10T11:08:07.952Z,12.10
2023-05-10T11:10:35.514Z,12.01
2023-05-10T11:13:03.643Z,12.03
2023-05-10T11:15:32.226Z,12.10
2023-05-10T11:18:00.240Z,12.15
2023-05-10T11:20:39.635Z,12.08
2023-05-10T11:23:16.660Z,11.99
2023-05-10T11:25:45.364Z,11.95
2023-05-10T11:28:17.729Z,12.07
2023-05-10T11:30:45.880Z,12.07
2023-05-10T11:33:17.673Z,11.99
2023-05-10T11:35:45.165Z,12.03
2023-05-10T11:38:13.402Z,12.03
2023-05-10T11:40:41.477Z,11.90
2023-05-10T11:43:09.762Z,11.90
2023-05-10T11:45:37.216Z,11.94
2023-05-10T11:48:05.083Z,11.93
2023-05-10T11:50:32.790Z,11.98
2023-05-10T11:53:00.335Z,12.02
2023-05-10T11:55:27.672Z,12.06
2023-05-10T11:57:55.388Z,12.10
2023-05-10T12:00:22.790Z,11.96
2023-05-10T12:02:51.084Z,12.01
2023-05-10T12:05:18.585Z,11.91
2023-05-10T12:07:45.878Z,11.88
2023-05-10T12:10:19.253Z,12.01
2023-05-10T12:12:48.473Z,12.00
2023-05-10T12:15:19.538Z,11.98
2023-05-10T12:17:47.533Z,11.97
2023-05-10T12:20:19.489Z,11.97
2023-05-10T12:22:47.716Z,12.03
2023-05-10T12:25:15.048Z,11.98
2023-05-10T12:27:50.128Z,11.91
2023-05-10T12:30:27.984Z,11.87
2023-05-10T12:33:00.501Z,11.93
2023-05-10T12:35:30.920Z,11.81
2023-05-10T12:37:58.385Z,11.80
2023-05-10T12:40:25.840Z,11.84
2023-05-10T12:42:53.688Z,11.87
2023-05-10T12:45:21.021Z,11.92
2023-05-10T12:47:48.404Z,11.89
2023-05-10T12:50:16.236Z,11.94
2023-05-10T12:52:43.865Z,11.90
2023-05-10T12:55:11.562Z,12.00
2023-05-10T12:57:39.873Z,11.98
2023-05-10T13:00:08.003Z,12.02
2023-05-10T13:02:35.378Z,11.97
2023-05-10T13:05:05.863Z,11.93
2023-05-10T13:07:35.978Z,11.96
2023-05-10T13:10:05.887Z,12.03
2023-05-10T13:12:33.398Z,12.05
2023-05-10T13:15:04.819Z,12.03
2023-05-10T13:17:33.559Z,12.05
2023-05-10T13:20:01.909Z,12.12
2023-05-10T13:22:39.809Z,12.18
2023-05-10T13:25:08.466Z,12.06
2023-05-10T13:27:36.339Z,12.17
2023-05-10T13:30:04.988Z,12.17
2023-05-10T13:32:32.959Z,12.13
2023-05-10T13:35:05.926Z,12.09
2023-05-10T13:37:36.535Z,12.17
2023-05-10T13:40:05.300Z,12.14
2023-05-10T13:42:36.008Z,12.04
2023-05-10T13:45:06.561Z,12.09
2023-05-10T13:47:34.434Z,12.06
2023-05-10T13:50:02.096Z,12.07
2023-05-10T13:52:30.714Z,12.21
2023-05-10T13:54:58.412Z,12.18
2023-05-10T13:57:29.991Z,12.06
2023-05-10T13:59:58.427Z,12.13
2023-05-10T14:02:26.997Z,12.19
2023-05-10T14:04:54.878Z,12.12
2023-05-10T14:07:25.520Z,12.20
2023-05-10T14:09:52.901Z,12.20
2023-05-10T14:12:20.632Z,12.26
2023-05-10T14:14:48.536Z,12.22
2023-05-10T14:17:16.522Z,12.24
2023-05-10T14:19:44.367Z,12.28
2023-05-10T14:22:11.737Z,12.28
2023-05-10T14:24:39.360Z,12.33
2023-05-10T14:27:07.154Z,12.33
2023-05-10T14:29:35.026Z,12.34
2023-05-10T14:32:03.990Z,12.37
2023-05-10T14:34:32.296Z,12.36
2023-05-10T14:37:00.254Z,12.39
2023-05-10T14:39:32.775Z,12.41
2023-05-10T14:42:03.754Z,12.29
2023-05-10T14:44:31.705Z,12.34
2023-05-10T14:47:01.080Z,12.43
2023-05-10T14:49:28.476Z,12.47
2023-05-10T14:52:07.499Z,12.45
2023-05-10T14:54:41.418Z,12.44
2023-05-10T14:57:09.330Z,12.50
2023-05-10T14:59:37.131Z,12.47
2023-05-10T15:02:05.486Z,12.53
2023-05-10T15:04:39.095Z,12.53
2023-05-10T15:07:11.822Z,12.32
2023-05-10T15:09:40.568Z,12.36
2023-05-10T15:12:08.290Z,12.37
2023-05-10T15:14:37.381Z,12.39
2023-05-10T15:17:07.098Z,12.37
2023-05-10T15:19:34.483Z,12.34
2023-05-10T15:22:03.447Z,12.35
2023-05-10T15:24:30.821Z,12.31
2023-05-10T15:26:58.357Z,12.29
2023-05-10T15:29:25.634Z,12.29
2023-05-10T15:31:53.070Z,12.35
2023-05-10T15:34:20.564Z,12.31
2023-05-10T15:36:47.869Z,12.33
2023-05-10T15:39:15.155Z,12.31
2023-05-10T15:41:42.725Z,12.31
2023-05-10T15:44:10.065Z,12.27
2023-05-10T15:46:38.978Z,12.28
2023-05-10T15:49:06.862Z,12.30
2023-05-10T15:51:36.453Z,12.30
2023-05-10T15:54:07.771Z,12.27
2023-05-10T15:56:36.124Z,12.24
2023-05-10T15:59:03.920Z,12.22
2023-05-10T16:01:32.660Z,12.18
2023-05-10T16:04:00.547Z,12.27
2023-05-10T16:06:28.017Z,12.17
2023-05-10T16:08:55.437Z,12.15
2023-05-10T16:11:22.830Z,12.12
2023-05-10T16:13:50.272Z,12.19
2023-05-10T16:16:17.691Z,12.20
2023-05-10T16:18:45.142Z,12.07
2023-05-10T16:21:12.639Z,12.04
2023-05-10T16:23:40.325Z,12.05
2023-05-10T16:26:08.925Z,12.01
2023-05-10T16:28:50.483Z,12.00
2023-05-10T16:31:40.681Z,12.01
2023-05-10T16:59:39.229Z,11.98
2023-05-10T17:26:20.869Z,11.81
2023-05-10T17:36:47.055Z,11.88
2023-05-10T17:43:07.110Z,11.86
2023-05-10T17:48:38.997Z,11.83
2023-05-10T17:51:06.750Z,11.86
2023-05-10T17:53:35.228Z,11.82
2023-05-10T17:56:02.718Z,11.81
2023-05-10T17:58:30.461Z,11.75
2023-05-10T18:00:58.036Z,11.66
2023-05-10T18:03:25.466Z,11.71
2023-05-10T18:05:53.829Z,11.72
2023-05-10T18:08:25.136Z,11.72
2023-05-10T18:10:52.816Z,11.70
2023-05-10T18:13:20.718Z,11.75
2023-05-10T18:15:48.329Z,11.75
2023-05-10T18:18:17.087Z,11.72
2023-05-10T18:20:46.349Z,11.72
2023-05-10T18:23:15.326Z,11.76
2023-05-10T18:25:43.078Z,11.82
2023-05-10T18:28:10.677Z,11.73
2023-05-10T18:30:38.152Z,11.77
2023-05-10T18:33:05.533Z,11.77
2023-05-10T18:35:35.478Z,11.77
2023-05-10T18:38:04.318Z,11.67
2023-05-10T18:40:32.751Z,11.71
2023-05-10T18:43:00.770Z,11.73
2023-05-10T18:45:28.649Z,11.66
2023-05-10T18:47:57.679Z,11.72
2023-05-10T18:50:26.119Z,11.64
2023-05-10T18:52:54.907Z,11.53
2023-05-10T18:55:25.949Z,11.60
2023-05-10T18:57:54.080Z,11.51
2023-05-10T19:00:22.626Z,11.55
2023-05-10T19:02:51.440Z,11.62
2023-05-10T19:05:21.676Z,11.56
2023-05-10T19:07:50.075Z,11.59
2023-05-10T19:10:20.235Z,11.58
2023-05-10T19:12:49.390Z,11.55
2023-05-10T19:15:20.825Z,11.61
2023-05-10T19:17:52.002Z,11.65
2023-05-10T19:20:23.546Z,11.67
2023-05-10T19:23:02.596Z,11.56
2023-05-10T19:25:37.758Z,11.51
2023-05-10T19:28:06.389Z,11.45
2023-05-10T19:30:35.903Z,11.47
2023-05-10T19:33:06.526Z,11.54
2023-05-10T19:35:34.706Z,11.58
2023-05-10T19:38:02.644Z,11.48
2023-05-10T19:40:30.390Z,11.50
2023-05-10T19:42:59.286Z,11.47
2023-05-10T19:45:29.264Z,11.52
2023-05-10T19:47:59.289Z,11.54
2023-05-10T19:50:29.167Z,11.52
2023-05-10T19:52:59.525Z,11.56
2023-05-10T19:55:31.699Z,11.55
2023-05-10T19:58:01.647Z,11.56
2023-05-10T20:00:30.104Z,11.60
2023-05-10T20:02:58.491Z,11.59
2023-05-10T20:05:28.234Z,11.61
2023-05-10T20:07:56.498Z,11.56
2023-05-10T20:10:27.136Z,11.57
2023-05-10T20:12:56.553Z,11.63
2023-05-10T20:15:27.297Z,11.60
2023-05-10T20:17:58.537Z,11.57
2023-05-10T20:20:27.175Z,11.59
2023-05-10T20:22:58.198Z,11.65
2023-05-10T20:25:26.979Z,11.60
2023-05-10T20:27:55.602Z,11.54
2023-05-10T20:30:24.466Z,11.55
2023-05-10T20:32:55.722Z,11.60
2023-05-10T20:35:27.008Z,11.52
2023-05-10T20:37:57.047Z,11.57
2023-05-10T20:40:25.475Z,11.63
2023-05-10T20:42:55.352Z,11.62
2023-05-10T20:45:24.352Z,11.65
2023-05-10T20:47:54.319Z,11.69
2023-05-10T20:50:22.805Z,11.72
2023-05-10T20:52:55.610Z,11.64
2023-05-10T20:55:24.132Z,11.67
2023-05-10T20:57:52.944Z,11.67
2023-05-10T21:00:21.223Z,11.69
2023-05-10T21:02:49.566Z,11.60
2023-05-10T21:05:18.517Z,11.56
2023-05-10T21:07:46.225Z,11.56
2023-05-10T21:10:13.996Z,11.61
2023-05-10T21:12:41.616Z,11.55
2023-05-10T21:15:09.330Z,11.61
2023-05-10T21:17:37.077Z,11.62
2023-05-10T21:20:04.703Z,11.57
2023-05-10T21:22:34.170Z,11.55
2023-05-10T21:25:02.112Z,11.58
2023-05-10T21:27:29.616Z,11.58
2023-05-10T21:29:57.037Z,11.58
2023-05-10T21:32:24.326Z,11.57
2023-05-10T21:34:51.782Z,11.53
2023-05-10T21:37:19.262Z,11.56
2023-05-10T21:39:46.668Z,11.59
2023-05-10T21:42:13.918Z,11.56
2023-05-10T21:44:41.220Z,11.54
2023-05-10T21:47:08.692Z,11.48
2023-05-10T21:49:36.041Z,11.38
2023-05-10T21:52:03.508Z,11.36
2023-05-10T21:54:31.011Z,11.32
2023-05-10T21:56:58.362Z,11.28
2023-05-10T21:59:25.720Z,11.27
2023-05-10T22:01:53.337Z,11.18
2023-05-10T22:04:20.845Z,11.21
2023-05-10T22:06:49.120Z,11.20
2023-05-10T22:09:16.907Z,11.18
2023-05-10T22:11:44.458Z,11.14
2023-05-10T22:14:11.767Z,11.16
2023-05-10T22:16:39.225Z,11.14
2023-05-10T22:19:06.682Z,11.13
2023-05-10T22:21:34.032Z,11.17
2023-05-10T22:24:01.354Z,11.10
2023-05-10T22:26:28.747Z,11.06
2023-05-10T22:28:56.103Z,11.13
2023-05-10T22:31:23.544Z,11.12
2023-05-10T22:33:50.824Z,11.17
2023-05-10T22:36:18.173Z,11.06
2023-05-10T22:38:45.985Z,11.11
2023-05-10T22:41:13.813Z,11.11
2023-05-10T22:43:46.740Z,11.10
2023-05-10T22:46:14.230Z,11.06
2023-05-10T22:48:42.428Z,11.06
2023-05-10T22:51:09.987Z,11.00
2023-05-10T22:53:37.342Z,10.99
2023-05-10T22:56:04.700Z,11.02
2023-05-10T22:58:32.160Z,11.05
2023-05-10T23:00:59.480Z,10.99
2023-05-10T23:03:26.771Z,10.97
2023-05-10T23:05:54.105Z,10.89
2023-05-10T23:08:22.466Z,10.93
2023-05-10T23:10:49.811Z,10.87
2023-05-10T23:13:17.414Z,10.78
2023-05-10T23:15:44.698Z,10.77
2023-05-10T23:18:12.946Z,10.80
2023-05-10T23:20:43.587Z,10.76
2023-05-10T23:23:11.460Z,10.72
2023-05-10T23:25:38.893Z,10.76
2023-05-10T23:28:06.272Z,10.70
2023-05-10T23:30:33.684Z,10.85
2023-05-10T23:33:01.125Z,10.68
2023-05-10T23:35:28.451Z,10.54
2023-05-10T23:37:55.827Z,10.48
2023-05-10T23:40:23.266Z,10.42
2023-05-10T23:42:50.829Z,10.35
2023-05-10T23:45:18.246Z,10.31
2023-05-10T23:47:45.883Z,10.37
2023-05-10T23:50:13.211Z,10.15
2023-05-10T23:52:40.702Z,10.17
2023-05-10T23:55:08.497Z,10.01
2023-05-10T23:57:35.742Z,10.04
